createdAt,value
2019-01-14T00:01:10.002Z,62.81
2019-01-14T00:03:39.593Z,64.08
2019-01-14T00:06:10.320Z,64.18
2019-01-14T00:08:40.048Z,63.38
2019-01-14T00:11:09.828Z,63.43
2019-01-14T00:13:39.731Z,62.67
2019-01-14T00:16:09.572Z,62.50
2019-01-14T00:18:39.091Z,62.48
2019-01-14T00:21:08.805Z,62.28
2019-01-14T00:23:38.867Z,62.63
2019-01-14T00:26:08.909Z,61.76
2019-01-14T00:28:39.002Z,60.58
2019-01-14T00:31:09.014Z,60.02
2019-01-14T00:33:39.061Z,60.04
2019-01-14T00:36:08.840Z,59.92
2019-01-14T00:38:38.513Z,59.33
2019-01-14T00:41:08.324Z,59.31
2019-01-14T00:43:37.860Z,59.57
2019-01-14T00:46:07.406Z,58.72
2019-01-14T00:48:36.959Z,57.31
2019-01-14T00:51:06.448Z,57.80
2019-01-14T00:53:35.973Z,57.04
2019-01-14T00:56:05.470Z,57.51
2019-01-14T00:58:35.106Z,57.95
2019-01-14T01:01:05.525Z,58.21
2019-01-14T01:03:35.664Z,58.60
2019-01-14T01:06:05.743Z,58.53
2019-01-14T01:08:35.371Z,58.55
2019-01-14T01:11:05.245Z,57.51
2019-01-14T01:13:35.196Z,56.04
2019-01-14T01:16:04.816Z,56.46
2019-01-14T01:18:34.327Z,55.79
2019-01-14T01:21:04.301Z,55.63
2019-01-14T01:23:34.764Z,55.76
2019-01-14T01:26:05.334Z,54.91
2019-01-14T01:28:34.849Z,55.77
2019-01-14T01:31:04.369Z,55.87
2019-01-14T01:33:33.924Z,55.66
2019-01-14T01:36:03.433Z,55.63
2019-01-14T01:38:33.240Z,56.13
2019-01-14T01:41:02.781Z,56.80
2019-01-14T01:43:32.684Z,57.41
2019-01-14T01:46:02.502Z,57.97
2019-01-14T01:48:32.220Z,58.01
2019-01-14T01:51:01.732Z,58.28
2019-01-14T01:53:31.527Z,58.15
2019-01-14T01:56:01.318Z,57.27
2019-01-14T01:58:31.096Z,56.50
2019-01-14T02:01:01.001Z,56.96
2019-01-14T02:03:30.485Z,56.86
2019-01-14T02:05:59.973Z,57.06
2019-01-14T02:08:29.637Z,56.61
2019-01-14T02:10:59.206Z,56.40
2019-01-14T02:13:28.754Z,56.09
2019-01-14T02:15:58.243Z,56.15
2019-01-14T02:18:27.767Z,56.34
2019-01-14T02:20:57.528Z,56.25
2019-01-14T02:23:27.314Z,56.16
2019-01-14T02:25:56.794Z,56.38
2019-01-14T02:28:26.390Z,56.20
2019-01-14T02:30:55.946Z,56.52
2019-01-14T02:33:25.742Z,55.70
2019-01-14T02:35:55.860Z,55.97
2019-01-14T02:38:25.343Z,55.50
2019-01-14T02:40:56.219Z,55.63
2019-01-14T02:43:25.777Z,55.66
2019-01-14T02:45:55.255Z,55.98
2019-01-14T02:48:24.755Z,56.62
2019-01-14T02:50:54.657Z,56.78
2019-01-14T02:53:24.155Z,56.46
2019-01-14T02:55:54.270Z,56.50
2019-01-14T02:58:24.081Z,57.06
2019-01-14T03:00:53.860Z,56.75
2019-01-14T03:03:23.403Z,56.88
2019-01-14T03:05:52.865Z,56.84
2019-01-14T03:08:22.328Z,57.34
2019-01-14T03:10:51.828Z,57.41
2019-01-14T03:13:21.845Z,57.00
2019-01-14T03:15:51.630Z,57.34
2019-01-14T03:18:21.425Z,57.48
2019-01-14T03:20:51.154Z,57.53
2019-01-14T03:23:20.662Z,57.31
2019-01-14T03:25:58.062Z,57.51
2019-01-14T03:28:21.409Z,57.46
2019-01-14T03:30:51.220Z,57.53
2019-01-14T03:33:21.012Z,57.61
2019-01-14T03:35:50.572Z,58.00
2019-01-14T03:38:20.098Z,58.32
2019-01-14T03:40:49.682Z,58.35
2019-01-14T03:43:19.191Z,58.38
2019-01-14T03:45:48.736Z,58.71
2019-01-14T03:48:18.287Z,58.64
2019-01-14T03:50:47.781Z,59.02
2019-01-14T03:53:17.293Z,59.22
2019-01-14T03:55:46.863Z,58.82
2019-01-14T03:58:16.767Z,58.90
2019-01-14T04:00:47.088Z,59.01
2019-01-14T04:03:16.763Z,59.30
2019-01-14T04:05:47.148Z,59.32
2019-01-14T04:08:17.088Z,59.08
2019-01-14T04:10:47.486Z,59.46
2019-01-14T04:13:17.092Z,59.72
2019-01-14T04:15:47.000Z,59.91
2019-01-14T04:18:17.312Z,60.09
2019-01-14T04:20:47.545Z,60.13
2019-01-14T04:23:17.181Z,60.56
2019-01-14T04:25:47.134Z,60.81
2019-01-14T04:28:17.137Z,60.89
2019-01-14T04:30:47.242Z,61.05
2019-01-14T04:33:17.339Z,61.11
2019-01-14T04:35:48.184Z,60.57
2019-01-14T04:38:17.669Z,60.74
2019-01-14T04:40:47.727Z,60.46
2019-01-14T04:43:17.799Z,60.16
2019-01-14T04:45:47.510Z,60.60
2019-01-14T04:48:17.687Z,60.73
2019-01-14T04:50:47.624Z,60.56
2019-01-14T04:53:17.858Z,60.82
2019-01-14T04:55:47.623Z,60.77
2019-01-14T04:58:17.890Z,60.73
2019-01-14T05:00:47.731Z,60.87
2019-01-14T05:03:17.934Z,61.03
2019-01-14T05:05:47.797Z,60.91
2019-01-14T05:08:18.119Z,60.76
2019-01-14T05:10:47.917Z,61.34
2019-01-14T05:13:17.926Z,61.04
2019-01-14T05:15:48.004Z,60.76
2019-01-14T05:18:18.009Z,60.53
2019-01-14T05:20:48.098Z,60.42
2019-01-14T05:23:18.167Z,60.34
2019-01-14T05:25:48.626Z,59.81
2019-01-14T05:28:18.353Z,59.12
2019-01-14T05:30:48.454Z,59.46
2019-01-14T05:33:18.276Z,59.49
2019-01-14T05:35:48.579Z,59.47
2019-01-14T05:38:18.658Z,59.92
2019-01-14T05:40:48.416Z,60.19
2019-01-14T05:43:18.690Z,59.91
2019-01-14T05:45:48.753Z,59.92
2019-01-14T05:48:18.647Z,59.79
2019-01-14T05:50:48.630Z,59.86
2019-01-14T05:53:18.610Z,60.10
2019-01-14T05:55:49.125Z,60.66
2019-01-14T05:58:19.072Z,60.66
2019-01-14T06:00:49.450Z,61.39
2019-01-14T06:03:19.359Z,61.41
2019-01-14T06:05:48.854Z,61.83
2019-01-14T06:08:20.462Z,61.88
2019-01-14T06:10:50.126Z,62.03
2019-01-14T06:13:19.934Z,62.38
2019-01-14T06:15:50.055Z,62.62
2019-01-14T06:18:19.569Z,62.94
2019-01-14T06:20:49.767Z,62.86
2019-01-14T06:23:19.288Z,62.92
2019-01-14T06:25:49.333Z,62.90
2019-01-14T06:28:19.390Z,62.99
2019-01-14T06:30:49.529Z,62.79
2019-01-14T06:33:19.310Z,62.52
2019-01-14T06:35:49.375Z,62.41
2019-01-14T06:38:19.507Z,62.38
2019-01-14T06:40:49.775Z,62.40
2019-01-14T06:43:19.951Z,62.15
2019-01-14T06:45:49.755Z,61.86
2019-01-14T06:48:19.719Z,61.80
2019-01-14T06:50:49.920Z,61.54
2019-01-14T06:53:19.632Z,61.46
2019-01-14T06:55:49.670Z,61.38
2019-01-14T06:58:19.897Z,61.90
2019-01-14T07:00:49.796Z,61.53
2019-01-14T07:03:19.779Z,61.11
2019-01-14T07:05:50.220Z,60.90
2019-01-14T07:08:20.397Z,61.21
2019-01-14T07:10:51.641Z,62.30
2019-01-14T07:13:21.509Z,61.77
2019-01-14T07:15:51.036Z,61.79
2019-01-14T07:18:20.821Z,62.47
2019-01-14T07:20:50.299Z,63.03
2019-01-14T07:23:20.119Z,62.66
2019-01-14T07:25:50.572Z,62.58
2019-01-14T07:28:20.326Z,62.70
2019-01-14T07:30:50.482Z,62.21
2019-01-14T07:33:20.658Z,62.29
2019-01-14T07:35:50.389Z,62.39
2019-01-14T07:38:20.566Z,62.36
2019-01-14T07:40:50.497Z,62.63
2019-01-14T07:43:20.586Z,62.80
2019-01-14T07:45:51.913Z,63.23
2019-01-14T07:48:21.456Z,63.26
2019-01-14T07:50:51.043Z,63.33
2019-01-14T07:53:20.717Z,63.00
2019-01-14T07:55:50.703Z,62.97
2019-01-14T07:58:20.895Z,62.70
2019-01-14T08:00:50.793Z,62.12
2019-01-14T08:03:21.337Z,62.00
2019-01-14T08:05:51.328Z,61.80
2019-01-14T08:08:23.364Z,62.01
2019-01-14T08:10:52.933Z,61.94
2019-01-14T08:13:22.641Z,62.58
2019-01-14T08:15:52.444Z,62.64
2019-01-14T08:18:22.251Z,62.78
2019-01-14T08:20:51.740Z,62.67
2019-01-14T08:23:21.367Z,62.62
2019-01-14T08:25:51.822Z,62.99
2019-01-14T08:28:21.331Z,62.66
2019-01-14T08:30:51.305Z,62.15
2019-01-14T08:33:21.637Z,61.87
2019-01-14T08:35:51.719Z,61.94
2019-01-14T08:38:21.555Z,62.08
2019-01-14T08:40:51.486Z,62.50
2019-01-14T08:43:21.570Z,62.34
2019-01-14T08:45:51.751Z,62.55
2019-01-14T08:48:21.864Z,62.63
2019-01-14T08:50:51.718Z,62.59
2019-01-14T08:53:22.180Z,62.70
2019-01-14T08:55:52.141Z,62.71
2019-01-14T08:58:22.051Z,63.01
2019-01-14T09:00:51.847Z,63.26
2019-01-14T09:03:21.852Z,63.63
2019-01-14T09:05:52.141Z,64.03
2019-01-14T09:08:28.600Z,64.15
2019-01-14T09:10:53.601Z,64.05
2019-01-14T09:13:23.354Z,64.36
2019-01-14T09:15:52.864Z,64.39
2019-01-14T09:18:22.372Z,64.65
2019-01-14T09:20:52.308Z,65.08
2019-01-14T09:23:22.167Z,64.96
2019-01-14T09:25:53.999Z,65.19
2019-01-14T09:28:23.406Z,65.08
2019-01-14T09:30:53.210Z,65.28
2019-01-14T09:33:22.679Z,65.17
2019-01-14T09:35:52.704Z,65.22
2019-01-14T09:38:22.709Z,65.22
2019-01-14T09:40:52.469Z,65.22
2019-01-14T09:43:22.667Z,65.13
2019-01-14T09:45:52.573Z,65.11
2019-01-14T09:48:22.603Z,64.62
2019-01-14T09:50:53.285Z,64.50
2019-01-14T09:53:23.057Z,64.36
2019-01-14T09:55:53.665Z,64.25
2019-01-14T09:58:23.186Z,64.27
2019-01-14T10:00:52.977Z,64.09
2019-01-14T10:03:23.349Z,64.27
2019-01-14T10:05:53.113Z,64.45
2019-01-14T10:08:23.602Z,64.52
2019-01-14T10:10:53.273Z,63.69
2019-01-14T10:13:23.740Z,64.03
2019-01-14T10:15:53.448Z,63.24
2019-01-14T10:18:24.194Z,62.85
2019-01-14T10:20:53.993Z,62.65
2019-01-14T10:23:23.933Z,62.08
2019-01-14T10:25:53.893Z,62.08
2019-01-14T10:28:23.625Z,62.15
2019-01-14T10:30:53.618Z,62.19
2019-01-14T10:33:24.194Z,62.35
2019-01-14T10:35:53.937Z,61.67
2019-01-14T10:38:23.831Z,61.57
2019-01-14T10:40:54.518Z,60.94
2019-01-14T10:43:24.349Z,60.04
2019-01-14T10:45:53.911Z,59.88
2019-01-14T10:48:23.897Z,59.56
2019-01-14T10:50:54.264Z,59.69
2019-01-14T10:53:23.965Z,60.07
2019-01-14T10:55:57.759Z,60.20
2019-01-14T10:58:29.692Z,58.93
2019-01-14T11:00:59.201Z,59.75
2019-01-14T11:03:29.017Z,60.29
2019-01-14T11:05:58.513Z,60.86
2019-01-14T11:08:28.083Z,60.57
2019-01-14T11:10:58.898Z,60.62
2019-01-14T11:13:28.926Z,59.59
2019-01-14T11:15:58.536Z,60.02
2019-01-14T11:18:28.561Z,59.64
2019-01-14T11:20:58.371Z,59.49
2019-01-14T11:23:27.989Z,58.79
2019-01-14T11:25:57.490Z,58.28
2019-01-14T11:28:27.086Z,58.13
2019-01-14T11:30:56.590Z,57.29
2019-01-14T11:33:26.122Z,56.95
2019-01-14T11:35:55.955Z,55.67
2019-01-14T11:38:40.899Z,56.06
2019-01-14T11:41:10.610Z,55.26
2019-01-14T11:43:40.721Z,55.91
2019-01-14T11:46:10.597Z,56.22
2019-01-14T11:48:40.091Z,56.18
2019-01-14T11:51:10.067Z,56.71
2019-01-14T11:53:39.721Z,56.24
2019-01-14T11:56:09.319Z,56.41
2019-01-14T11:58:38.815Z,56.98
2019-01-14T12:01:08.690Z,55.63
2019-01-14T12:03:38.498Z,55.21
2019-01-14T12:06:07.988Z,55.74
2019-01-14T12:08:37.565Z,55.83
2019-01-14T12:11:07.078Z,60.78
2019-01-14T12:13:36.819Z,64.67
2019-01-14T12:16:06.581Z,65.40
2019-01-14T12:18:36.105Z,65.27
2019-01-14T12:21:05.830Z,65.37
2019-01-14T12:23:35.472Z,65.98
2019-01-14T12:26:05.364Z,66.21
2019-01-14T12:28:35.657Z,65.57
2019-01-14T12:31:05.805Z,64.40
2019-01-14T12:33:35.557Z,63.81
2019-01-14T12:36:05.643Z,62.56
2019-01-14T12:38:35.124Z,60.76
2019-01-14T12:41:04.616Z,60.45
2019-01-14T12:43:34.776Z,60.57
2019-01-14T12:46:04.275Z,61.25
2019-01-14T12:48:34.029Z,61.35
2019-01-14T12:51:03.530Z,61.22
2019-01-14T12:53:33.591Z,61.13
2019-01-14T12:56:03.371Z,60.69
2019-01-14T12:58:33.174Z,59.98
2019-01-14T13:01:02.696Z,59.17
2019-01-14T13:03:32.757Z,58.65
2019-01-14T13:06:02.512Z,57.87
2019-01-14T13:08:32.307Z,57.47
2019-01-14T13:11:01.797Z,58.00
2019-01-14T13:13:31.303Z,57.77
2019-01-14T13:16:00.933Z,57.87
2019-01-14T13:18:30.785Z,58.11
2019-01-14T13:21:00.286Z,60.09
2019-01-14T13:23:32.310Z,61.37
2019-01-14T13:26:01.535Z,61.49
2019-01-14T13:28:31.358Z,61.29
2019-01-14T13:31:01.110Z,61.37
2019-01-14T13:33:30.718Z,61.11
2019-01-14T13:36:00.497Z,60.91
2019-01-14T13:38:30.010Z,60.69
2019-01-14T13:40:59.502Z,60.80
2019-01-14T13:43:28.983Z,60.91
2019-01-14T13:45:59.087Z,61.29
2019-01-14T13:48:28.599Z,61.43
2019-01-14T13:50:58.380Z,62.03
2019-01-14T13:53:27.881Z,62.57
2019-01-14T13:55:59.506Z,63.91
2019-01-14T13:58:29.375Z,64.42
2019-01-14T14:00:59.289Z,65.51
2019-01-14T14:03:29.205Z,66.86
2019-01-14T14:05:58.720Z,67.18
2019-01-14T14:08:28.425Z,67.09
2019-01-14T14:10:58.181Z,66.44
2019-01-14T14:13:28.273Z,65.90
2019-01-14T14:15:57.996Z,65.46
2019-01-14T14:18:31.787Z,64.83
2019-01-14T14:21:01.545Z,64.54
2019-01-14T14:23:31.453Z,64.58
2019-01-14T14:26:01.389Z,64.38
2019-01-14T14:28:31.389Z,64.48
2019-01-14T14:31:02.184Z,64.04
2019-01-14T14:33:31.805Z,64.46
2019-01-14T14:36:01.400Z,64.31
2019-01-14T14:38:31.574Z,63.75
2019-01-14T14:41:01.449Z,63.23
2019-01-14T14:43:31.274Z,62.56
2019-01-14T14:46:00.801Z,63.10
2019-01-14T14:48:30.334Z,63.83
2019-01-14T14:50:59.960Z,64.40
2019-01-14T14:53:30.381Z,64.28
2019-01-14T14:56:00.309Z,64.19
2019-01-14T14:58:30.135Z,64.21
2019-01-14T15:01:00.367Z,64.35
2019-01-14T15:03:29.820Z,64.39
2019-01-14T15:05:59.330Z,64.50
2019-01-14T15:08:29.146Z,64.74
2019-01-14T15:10:59.391Z,65.05
2019-01-14T15:13:29.508Z,64.75
2019-01-14T15:16:00.602Z,64.44
2019-01-14T15:18:30.134Z,64.71
2019-01-14T15:21:00.409Z,64.13
2019-01-14T15:23:30.176Z,64.17
2019-01-14T15:25:59.990Z,64.12
2019-01-14T15:28:29.857Z,64.33
2019-01-14T15:31:00.110Z,65.08
2019-01-14T15:33:29.776Z,65.56
2019-01-14T15:35:59.669Z,66.35
2019-01-14T15:38:29.761Z,66.84
2019-01-14T15:40:59.781Z,68.01
2019-01-14T15:43:29.546Z,69.13
2019-01-14T15:45:59.861Z,69.78
2019-01-14T15:48:29.631Z,70.23
2019-01-14T15:50:59.649Z,70.56
2019-01-14T15:53:30.256Z,70.84
2019-01-14T15:55:59.937Z,71.09
2019-01-14T15:58:29.865Z,71.39
2019-01-14T16:01:00.110Z,71.27
2019-01-14T16:03:30.185Z,70.95
2019-01-14T16:05:59.861Z,70.75
2019-01-14T16:08:29.874Z,70.36
2019-01-14T16:11:00.333Z,70.40
2019-01-14T16:13:30.216Z,70.06
2019-01-14T16:16:00.280Z,69.92
2019-01-14T16:18:30.672Z,69.63
2019-01-14T16:21:00.274Z,69.38
2019-01-14T16:23:30.565Z,69.50
2019-01-14T16:26:00.594Z,69.22
2019-01-14T16:28:30.416Z,69.29
2019-01-14T16:31:00.590Z,69.32
2019-01-14T16:33:30.455Z,69.04
2019-01-14T16:36:00.995Z,68.77
2019-01-14T16:38:30.671Z,68.76
2019-01-14T16:41:00.877Z,68.53
2019-01-14T16:43:31.226Z,68.57
2019-01-14T16:46:02.869Z,68.35
2019-01-14T16:48:32.471Z,68.23
2019-01-14T16:51:02.246Z,67.94
2019-01-14T16:53:31.754Z,68.14
2019-01-14T16:56:02.593Z,67.88
2019-01-14T16:58:32.577Z,67.67
2019-01-14T17:01:02.115Z,67.77
2019-01-14T17:03:31.869Z,67.56
2019-01-14T17:06:01.520Z,67.58
2019-01-14T17:08:31.668Z,67.39
2019-01-14T17:11:01.604Z,67.33
2019-01-14T17:13:31.605Z,67.13
2019-01-14T17:16:01.871Z,67.23
2019-01-14T17:18:31.364Z,66.89
2019-01-14T17:21:01.522Z,66.97
2019-01-14T17:23:32.036Z,66.98
2019-01-14T17:26:01.793Z,67.21
2019-01-14T17:28:31.613Z,67.41
2019-01-14T17:31:01.932Z,67.12
2019-01-14T17:33:31.703Z,67.38
2019-01-14T17:36:02.516Z,67.19
2019-01-14T17:38:32.512Z,67.59
2019-01-14T17:41:02.341Z,67.60
2019-01-14T17:43:32.499Z,67.89
2019-01-14T17:46:01.993Z,68.07
2019-01-14T17:48:32.667Z,68.16
2019-01-14T17:51:02.221Z,67.93
2019-01-14T17:53:32.001Z,68.01
2019-01-14T17:56:02.041Z,68.18
2019-01-14T17:58:32.190Z,67.82
2019-01-14T18:01:02.847Z,67.56
2019-01-14T18:03:32.418Z,67.62
2019-01-14T18:06:02.196Z,67.64
2019-01-14T18:08:32.274Z,67.52
2019-01-14T18:11:02.807Z,67.79
2019-01-14T18:13:32.848Z,67.74
2019-01-14T18:16:02.700Z,67.74
2019-01-14T18:18:32.572Z,67.89
2019-01-14T18:21:06.658Z,67.88
2019-01-14T18:23:34.125Z,67.79
2019-01-14T18:26:04.299Z,68.11
2019-01-14T18:28:33.848Z,68.27
2019-01-14T18:31:03.360Z,68.34
2019-01-14T18:33:32.904Z,68.59
2019-01-14T18:36:03.020Z,68.37
2019-01-14T18:41:01.451Z,68.40
2019-01-14T18:43:31.231Z,68.27
2019-01-14T18:46:01.085Z,68.48
2019-01-14T18:48:30.565Z,68.54
2019-01-14T18:51:00.059Z,68.51
2019-01-14T18:53:29.934Z,68.54
2019-01-14T18:55:59.769Z,68.80
2019-01-14T18:58:29.477Z,68.88
2019-01-14T19:00:58.989Z,69.04
2019-01-14T19:03:28.812Z,69.17
2019-01-14T19:05:58.378Z,69.16
2019-01-14T19:08:27.926Z,69.32
2019-01-14T19:10:58.491Z,69.47
2019-01-14T19:13:27.946Z,69.56
2019-01-14T19:15:57.645Z,69.51
2019-01-14T19:18:27.845Z,69.65
2019-01-14T19:20:58.130Z,69.64
2019-01-14T19:23:27.698Z,69.33
2019-01-14T19:25:57.207Z,68.98
2019-01-14T19:28:27.147Z,69.05
2019-01-14T19:30:57.086Z,68.91
2019-01-14T19:33:26.719Z,68.72
2019-01-14T19:35:56.226Z,68.70
2019-01-14T19:38:25.797Z,68.92
2019-01-14T19:41:01.617Z,68.83
2019-01-14T19:43:26.776Z,68.82
2019-01-14T19:45:56.577Z,68.48
2019-01-14T19:48:26.119Z,68.63
2019-01-14T19:50:55.736Z,68.39
2019-01-14T19:53:25.363Z,68.47
2019-01-14T19:55:55.728Z,68.26
2019-01-14T19:58:25.385Z,68.33
2019-01-14T20:00:54.959Z,68.49
2019-01-14T20:03:24.570Z,68.12
2019-01-14T20:05:54.128Z,68.22
2019-01-14T20:08:23.927Z,68.17
2019-01-14T20:10:53.627Z,68.15
2019-01-14T20:13:23.195Z,67.86
2019-01-14T20:15:52.777Z,67.93
2019-01-14T20:18:22.659Z,68.00
2019-01-14T20:20:52.487Z,67.86
2019-01-14T20:23:22.348Z,68.26
2019-01-14T20:25:52.201Z,68.07
2019-01-14T20:28:22.442Z,68.23
2019-01-14T20:30:52.338Z,68.32
2019-01-14T20:33:22.150Z,68.50
2019-01-14T20:35:52.183Z,68.56
2019-01-14T20:38:21.728Z,68.49
2019-01-14T20:40:51.195Z,68.66
2019-01-14T20:43:20.804Z,68.70
2019-01-14T20:48:18.939Z,67.97
2019-01-14T20:50:48.883Z,67.98
2019-01-14T20:53:18.711Z,67.49
2019-01-14T20:55:48.381Z,67.25
2019-01-14T20:58:18.222Z,67.35
2019-01-14T21:00:47.997Z,67.21
2019-01-14T21:03:18.202Z,67.24
2019-01-14T21:05:48.059Z,67.07
2019-01-14T21:08:17.898Z,67.43
2019-01-14T21:10:47.458Z,67.23
2019-01-14T21:13:17.191Z,67.30
2019-01-14T21:15:47.015Z,67.72
2019-01-14T21:18:16.535Z,67.89
2019-01-14T21:20:46.111Z,67.94
2019-01-14T21:23:15.611Z,68.02
2019-01-14T21:25:45.137Z,67.85
2019-01-14T21:28:14.719Z,68.06
2019-01-14T21:30:44.592Z,67.95
2019-01-14T21:33:14.469Z,67.81
2019-01-14T21:35:44.336Z,68.15
2019-01-14T21:38:13.873Z,68.22
2019-01-14T21:40:43.415Z,67.99
2019-01-14T21:43:12.987Z,67.66
2019-01-14T21:45:42.531Z,67.34
2019-01-14T21:48:17.220Z,67.59
2019-01-14T21:50:43.737Z,67.71
2019-01-14T21:53:13.230Z,67.89
2019-01-14T21:55:42.785Z,67.97
2019-01-14T21:58:12.550Z,67.64
2019-01-14T22:00:42.517Z,67.30
2019-01-14T22:03:12.007Z,67.11
2019-01-14T22:05:41.553Z,67.17
2019-01-14T22:08:11.109Z,66.97
2019-01-14T22:10:40.707Z,66.87
2019-01-14T22:13:10.992Z,66.67
2019-01-14T22:15:41.262Z,66.76
2019-01-14T22:18:11.180Z,66.56
2019-01-14T22:20:41.519Z,66.58
2019-01-14T22:23:11.545Z,66.67
2019-01-14T22:25:41.513Z,66.60
2019-01-14T22:28:11.333Z,66.59
2019-01-14T22:30:41.138Z,66.57
2019-01-14T22:33:11.429Z,66.54
2019-01-14T22:35:41.062Z,66.63
2019-01-14T22:38:11.142Z,66.57
2019-01-14T22:40:41.743Z,66.64
2019-01-14T22:43:11.501Z,66.80
2019-01-14T22:45:41.392Z,66.40
2019-01-14T22:48:11.151Z,66.28
2019-01-14T22:50:43.172Z,66.13
2019-01-14T22:53:12.960Z,66.17
2019-01-14T22:55:42.474Z,66.09
2019-01-14T22:58:12.796Z,66.09
2019-01-14T23:01:12.472Z,66.00
2019-01-14T23:03:45.576Z,66.01
2019-01-14T23:06:15.156Z,66.02
2019-01-14T23:08:45.104Z,65.99
2019-01-14T23:11:14.698Z,65.86
2019-01-14T23:13:44.457Z,65.98
2019-01-14T23:16:14.325Z,66.11
2019-01-14T23:18:43.830Z,66.13
2019-01-14T23:21:13.562Z,66.12
2019-01-14T23:23:43.734Z,66.44
2019-01-14T23:26:14.157Z,66.21
2019-01-14T23:28:43.730Z,66.02
2019-01-14T23:31:13.561Z,65.95
2019-01-14T23:33:43.355Z,65.78
2019-01-14T23:36:12.920Z,65.72
2019-01-14T23:38:42.686Z,65.56
2019-01-14T23:41:12.268Z,65.60
2019-01-14T23:43:42.023Z,65.44
2019-01-14T23:46:11.584Z,65.31
2019-01-14T23:48:41.070Z,65.14
2019-01-14T23:51:10.576Z,64.83
2019-01-14T23:53:40.170Z,64.61
2019-01-14T23:56:09.980Z,64.52
2019-01-14T23:58:39.519Z,64.36
